Whitleyville, Tennessee
Current Conditions -  °F | °C
As of 8:35 AM on Tuesday 27 Jan 2015 (Local Time) from KSRB Reporting Station
Overcast Overcast  
Wind Chill: 34°   Ceiling: 1300
Heat Index: 34°   Visibility: 4mi
Dew Point: 34°   Wind: 3mph
Humidity: 100%   Direction: 310°NW
Pressure: 29.96"   Gusts: NA
Location:  36.45°N, 85.74°W
Report Text: KSRB 271435Z AUTO 31003KT 4SM SCT006 BKN013 OVC018 01/01 A2996 RMK
Loading
Personal Weather Stations






























Interactive Weather Map New forecast layout! Learn more

10-Day Weather Forecast

Advertisements
Track Severe Weather on mobile